Time;durP1;ratioP1;P1;durP2;ratioP2;P2;SDS_P1;SDS_P2;PMS_P1;PMS_P2;Temp;Humidity;BMP_temperature;BMP_pressure;BME280_temperature;BME280_humidity;BME280_pressure;Samples;Min_cycle;Max_cycle;Signal;HPM_P1;HPM_P2
2022/07/03 00:00:41;;;;;;;4.60;2.37;;;20.50;63.70;;;;;;5003371;28;20478;-76
2022/07/03 00:03:09;;;;;;;4.30;2.07;;;20.50;63.70;;;;;;5019704;28;20924;-76
2022/07/03 00:05:37;;;;;;;5.97;2.47;;;20.50;63.80;;;;;;5018514;28;20861;-75
2022/07/03 00:08:05;;;;;;;4.30;2.00;;;20.50;63.80;;;;;;5014727;28;20469;-75
2022/07/03 00:10:35;;;;;;;4.13;2.17;;;20.50;63.80;;;;;;5017242;28;21007;-74
2022/07/03 00:13:03;;;;;;;4.30;2.20;;;20.50;63.80;;;;;;5013001;28;20466;-75
2022/07/03 00:15:31;;;;;;;4.10;2.03;;;20.40;63.80;;;;;;5013336;28;20562;-75
2022/07/03 00:17:59;;;;;;;5.07;2.23;;;20.40;63.90;;;;;;5011014;28;20467;-75
2022/07/03 00:20:30;;;;;;;5.20;2.03;;;20.30;64.00;;;;;;5016190;28;20465;-75
2022/07/03 00:23:02;;;;;;;6.50;1.93;;;20.30;64.00;;;;;;5016612;28;20838;-75
2022/07/03 00:25:33;;;;;;;7.17;2.80;;;20.20;64.00;;;;;;5013596;28;20534;-75
2022/07/03 00:28:02;;;;;;;6.40;2.47;;;20.20;64.10;;;;;;5015062;28;20582;-75
2022/07/03 00:30:30;;;;;;;4.27;2.23;;;20.20;64.20;;;;;;5014727;28;21301;-74
2022/07/03 00:33:01;;;;;;;4.43;2.30;;;20.10;64.30;;;;;;5018446;28;20473;-74
2022/07/03 00:35:31;;;;;;;5.17;2.03;;;20.10;64.40;;;;;;5014011;28;20482;-75
2022/07/03 00:37:59;;;;;;;5.87;2.80;;;20.00;64.40;;;;;;5015248;28;20454;-75
2022/07/03 00:40:27;;;;;;;4.63;2.50;;;20.00;64.40;;;;;;5017930;28;20460;-75
2022/07/03 00:42:57;;;;;;;5.73;2.60;;;19.90;64.50;;;;;;5021515;28;20467;-74
2022/07/03 00:45:27;;;;;;;4.30;2.07;;;19.90;64.50;;;;;;5016891;28;20490;-75
2022/07/03 00:47:56;;;;;;;4.80;3.00;;;19.80;64.60;;;;;;5019222;28;20453;-75
2022/07/03 00:50:30;;;;;;;4.80;2.80;;;19.80;64.70;;;;;;5019978;28;20467;-74
2022/07/03 00:53:01;;;;;;;3.97;2.10;;;19.80;64.80;;;;;;5017516;28;20532;-75
2022/07/03 00:55:29;;;;;;;4.30;2.20;;;19.70;64.90;;;;;;4995893;28;20480;-74
2022/07/03 00:57:58;;;;;;;6.10;2.60;;;19.70;65.00;;;;;;5015049;28;20476;-75
2022/07/03 01:00:27;;;;;;;4.77;2.23;;;19.70;65.10;;;;;;5015101;28;20470;-75
2022/07/03 01:02:59;;;;;;;6.10;2.70;;;19.70;65.10;;;;;;5017211;28;20474;-75
2022/07/03 01:05:30;;;;;;;4.47;2.27;;;19.70;65.10;;;;;;5017819;28;20487;-75
2022/07/03 01:08:08;;;;;;;4.47;2.47;;;19.60;65.10;;;;;;5023083;28;20478;-75
2022/07/03 01:10:44;;;;;;;4.30;2.33;;;19.60;65.20;;;;;;5016668;28;20454;-75
2022/07/03 01:13:19;;;;;;;4.40;2.20;;;19.60;65.30;;;;;;5019596;28;20454;-75
2022/07/03 01:15:59;;;;;;;6.00;2.60;;;19.60;65.30;;;;;;5013349;28;20819;-75
2022/07/03 01:18:36;;;;;;;5.10;2.60;;;19.50;65.30;;;;;;5017871;28;20464;-75
2022/07/03 01:21:08;;;;;;;4.50;2.40;;;19.50;65.40;;;;;;5011868;28;20620;-75
2022/07/03 01:23:57;;;;;;;5.00;2.20;;;19.40;65.50;;;;;;5017573;28;20464;-76
2022/07/03 01:26:29;;;;;;;5.77;2.67;;;19.40;65.60;;;;;;5013313;28;20489;-75
2022/07/03 01:29:04;;;;;;;4.73;2.30;;;19.40;65.60;;;;;;5015535;28;20468;-76
2022/07/03 01:31:32;;;;;;;4.70;2.60;;;19.40;65.70;;;;;;5012370;28;21024;-76
2022/07/03 01:34:03;;;;;;;4.40;2.23;;;19.30;65.70;;;;;;5013672;28;20461;-74
2022/07/03 01:36:32;;;;;;;4.50;2.40;;;19.40;65.70;;;;;;5009964;28;20479;-74
2022/07/03 01:39:02;;;;;;;6.87;2.70;;;19.30;65.70;;;;;;4993861;28;20461;-76
2022/07/03 01:41:32;;;;;;;5.53;2.60;;;19.30;65.70;;;;;;5014673;28;20472;-76
2022/07/03 01:44:02;;;;;;;5.00;2.20;;;19.30;65.80;;;;;;5015435;28;20495;-77
2022/07/03 01:46:32;;;;;;;4.40;2.43;;;19.20;65.90;;;;;;5016366;28;20533;-75
2022/07/03 01:49:01;;;;;;;5.00;2.30;;;19.20;65.90;;;;;;5016914;28;20486;-75
2022/07/03 01:51:30;;;;;;;4.47;2.40;;;19.20;66.00;;;;;;5015314;28;20471;-75
2022/07/03 01:54:00;;;;;;;6.83;2.53;;;19.20;66.00;;;;;;5017637;28;20457;-75
2022/07/03 01:56:33;;;;;;;5.57;3.07;;;19.20;66.00;;;;;;5019775;28;20492;-74
2022/07/03 01:59:01;;;;;;;4.43;2.43;;;19.10;66.00;;;;;;5016727;28;20489;-76
2022/07/03 02:01:34;;;;;;;5.23;2.60;;;19.10;66.00;;;;;;5010777;28;20637;-76
2022/07/03 02:04:08;;;;;;;4.20;2.40;;;19.10;66.00;;;;;;5017846;28;20460;-75
2022/07/03 02:06:41;;;;;;;4.10;2.20;;;19.10;66.10;;;;;;5011729;28;20481;-75
2022/07/03 02:09:11;;;;;;;7.50;2.37;;;19.10;66.20;;;;;;5013809;28;20458;-76
2022/07/03 02:11:56;;;;;;;4.30;2.40;;;19.10;66.10;;;;;;5023776;28;20860;-77
2022/07/03 02:14:26;;;;;;;5.20;2.70;;;19.00;66.20;;;;;;5023368;28;20564;-74
2022/07/03 02:17:04;;;;;;;4.90;2.50;;;19.00;66.20;;;;;;5017780;28;20836;-75
2022/07/03 02:19:44;;;;;;;4.50;2.60;;;19.00;66.30;;;;;;5017482;28;20916;-74
2022/07/03 02:22:13;;;;;;;10.43;2.60;;;19.00;66.30;;;;;;5017987;28;20445;-75
2022/07/03 02:24:44;;;;;;;6.87;3.40;;;19.00;66.20;;;;;;5017250;28;20472;-74
2022/07/03 02:27:18;;;;;;;4.20;2.50;;;19.00;66.20;;;;;;5016250;28;20500;-75
2022/07/03 02:29:50;;;;;;;5.83;2.90;;;18.90;66.30;;;;;;5020605;28;20516;-74
2022/07/03 02:32:22;;;;;;;5.03;2.50;;;18.90;66.30;;;;;;5018204;28;21032;-75
2022/07/03 02:34:57;;;;;;;5.37;2.43;;;18.80;66.40;;;;;;5020198;28;20472;-75
2022/07/03 02:37:30;;;;;;;7.17;3.50;;;18.80;66.40;;;;;;5002598;28;20464;-75
2022/07/03 02:40:04;;;;;;;4.90;3.10;;;18.80;66.50;;;;;;5017732;28;20466;-75
2022/07/03 02:42:43;;;;;;;5.63;2.73;;;18.70;66.50;;;;;;5021373;28;20472;-75
2022/07/03 02:45:12;;;;;;;8.20;3.40;;;18.70;66.60;;;;;;5014949;28;20524;-75
2022/07/03 02:47:49;;;;;;;5.70;3.00;;;18.60;66.60;;;;;;4999392;28;20493;-75
2022/07/03 02:50:21;;;;;;;5.53;3.03;;;18.60;66.70;;;;;;5019730;28;20950;-74
2022/07/03 02:53:02;;;;;;;5.53;3.20;;;18.60;66.80;;;;;;5016758;28;20455;-75
2022/07/03 02:55:41;;;;;;;5.03;2.93;;;18.60;66.80;;;;;;5021888;28;20481;-75
2022/07/03 02:58:42;;;;;;;4.87;3.00;;;18.50;66.90;;;;;;5014231;28;20766;-75
2022/07/03 03:01:13;;;;;;;4.90;2.80;;;18.50;67.00;;;;;;5017493;28;20535;-75
2022/07/03 03:03:51;;;;;;;5.17;2.83;;;18.50;66.90;;;;;;5002803;28;20464;-75
2022/07/03 03:06:22;;;;;;;6.40;2.90;;;18.50;66.90;;;;;;5015434;28;20480;-75
2022/07/03 03:08:53;;;;;;;6.27;3.00;;;18.40;66.90;;;;;;5019332;28;20461;-75
2022/07/03 03:11:25;;;;;;;4.93;2.77;;;18.40;66.80;;;;;;5024831;28;20548;-75
2022/07/03 03:13:57;;;;;;;7.07;3.37;;;18.30;66.90;;;;;;5020247;28;20977;-75
2022/07/03 03:16:26;;;;;;;4.90;2.67;;;18.30;67.00;;;;;;5016476;28;20493;-75
2022/07/03 03:18:54;;;;;;;6.30;2.70;;;18.30;67.00;;;;;;5016264;28;20457;-76
2022/07/03 03:21:27;;;;;;;5.27;3.00;;;18.30;67.10;;;;;;5021779;28;20562;-75
2022/07/03 03:23:55;;;;;;;4.90;2.80;;;18.20;67.10;;;;;;5016310;28;20457;-75
2022/07/03 03:26:24;;;;;;;5.67;2.73;;;18.30;67.10;;;;;;5018794;28;20480;-75
2022/07/03 03:28:54;;;;;;;4.77;2.73;;;18.20;67.20;;;;;;5020440;28;20497;-75
2022/07/03 03:31:22;;;;;;;8.40;3.10;;;18.20;67.20;;;;;;5001030;28;21043;-75
2022/07/03 03:33:53;;;;;;;6.17;3.53;;;18.20;67.20;;;;;;5018584;28;20467;-75
2022/07/03 03:36:21;;;;;;;5.23;2.50;;;18.20;67.10;;;;;;5015733;28;20493;-75
2022/07/03 03:38:50;;;;;;;5.60;2.63;;;18.20;67.20;;;;;;5021717;28;20675;-75
2022/07/03 03:41:18;;;;;;;5.70;2.40;;;18.20;67.20;;;;;;5020853;28;20511;-75
2022/07/03 03:43:47;;;;;;;4.53;2.80;;;18.10;67.20;;;;;;5018780;28;20445;-75
2022/07/03 03:46:16;;;;;;;5.90;3.63;;;18.10;67.30;;;;;;5016072;28;20550;-76
2022/07/03 03:48:44;;;;;;;5.53;2.93;;;18.10;67.40;;;;;;5015979;28;20504;-76
2022/07/03 03:51:13;;;;;;;5.87;2.57;;;18.10;67.40;;;;;;5022850;28;20457;-76
2022/07/03 03:53:42;;;;;;;7.40;2.77;;;18.10;67.40;;;;;;5022946;28;20518;-75
2022/07/03 03:56:14;;;;;;;5.67;3.00;;;18.00;67.40;;;;;;5014967;28;20503;-75
2022/07/03 03:58:43;;;;;;;6.87;3.30;;;18.00;67.50;;;;;;5018826;28;20490;-75
2022/07/03 04:01:12;;;;;;;6.63;3.47;;;18.00;67.60;;;;;;5017243;28;21314;-75
2022/07/03 04:03:42;;;;;;;5.60;3.30;;;18.00;67.70;;;;;;5019459;28;20472;-77
2022/07/03 04:06:10;;;;;;;7.40;3.40;;;18.00;67.80;;;;;;5013157;28;20510;-75
2022/07/03 04:08:38;;;;;;;9.37;3.17;;;18.00;67.90;;;;;;4997212;28;20863;-75
2022/07/03 04:11:06;;;;;;;5.27;2.90;;;18.10;68.00;;;;;;5013817;28;20463;-75
2022/07/03 04:13:34;;;;;;;6.40;3.50;;;18.10;68.00;;;;;;5015191;28;20493;-76
2022/07/03 04:16:08;;;;;;;5.30;3.50;;;18.20;68.00;;;;;;5017429;28;21170;-76
2022/07/03 04:18:36;;;;;;;4.70;2.90;;;18.20;68.10;;;;;;4996958;28;20460;-75
2022/07/03 04:21:05;;;;;;;5.43;2.70;;;18.30;68.10;;;;;;5017418;28;21257;-76
2022/07/03 04:23:33;;;;;;;6.20;2.93;;;18.40;68.20;;;;;;5018157;28;20449;-76
2022/07/03 04:26:05;;;;;;;5.07;3.03;;;18.40;68.20;;;;;;5015648;28;20491;-76
2022/07/03 04:28:33;;;;;;;5.70;3.03;;;18.50;68.30;;;;;;5016819;28;20509;-76
2022/07/03 04:31:01;;;;;;;6.30;3.50;;;18.60;68.30;;;;;;5017597;28;20473;-76
2022/07/03 04:33:29;;;;;;;6.53;3.10;;;18.70;68.30;;;;;;5016619;28;20461;-76
2022/07/03 04:35:57;;;;;;;6.77;3.20;;;18.90;68.20;;;;;;5016916;28;20489;-76
2022/07/03 04:38:27;;;;;;;8.00;3.20;;;19.00;68.20;;;;;;5014061;28;20476;-76
2022/07/03 04:40:55;;;;;;;6.10;3.40;;;19.10;68.20;;;;;;5016102;28;20462;-76
2022/07/03 04:43:23;;;;;;;5.90;3.10;;;19.20;68.30;;;;;;5020325;28;20833;-76
2022/07/03 04:45:50;;;;;;;6.50;3.93;;;19.30;68.30;;;;;;5016882;28;20481;-76
2022/07/03 04:48:19;;;;;;;5.70;3.30;;;19.40;68.30;;;;;;5013859;28;20487;-76
2022/07/03 04:50:47;;;;;;;6.00;3.67;;;19.50;68.10;;;;;;5012957;28;20459;-76
2022/07/03 04:53:15;;;;;;;7.27;3.30;;;19.60;68.10;;;;;;5015551;28;20465;-76
2022/07/03 04:55:44;;;;;;;7.37;3.07;;;19.70;68.00;;;;;;5013321;28;20489;-76
2022/07/03 04:58:12;;;;;;;6.10;3.33;;;19.80;68.00;;;;;;5010344;28;20474;-77
2022/07/03 05:00:40;;;;;;;5.33;3.17;;;19.90;68.00;;;;;;5017279;28;20474;-77
2022/07/03 05:03:11;;;;;;;5.47;3.33;;;20.00;68.10;;;;;;5015656;28;20533;-75
2022/07/03 05:05:40;;;;;;;5.30;3.13;;;20.10;68.00;;;;;;5016665;28;20488;-75
2022/07/03 05:08:08;;;;;;;5.83;3.40;;;20.20;68.00;;;;;;5019943;28;20480;-75
2022/07/03 05:10:36;;;;;;;6.60;3.33;;;20.30;67.90;;;;;;5014231;28;20466;-75
2022/07/03 05:13:05;;;;;;;6.60;3.27;;;20.40;67.90;;;;;;5015846;28;20610;-75
2022/07/03 05:15:33;;;;;;;6.10;2.77;;;20.50;67.90;;;;;;5015452;28;20467;-75
2022/07/03 05:18:01;;;;;;;8.10;3.30;;;20.60;68.00;;;;;;5009372;28;20459;-74
2022/07/03 05:20:30;;;;;;;5.93;2.90;;;20.80;68.00;;;;;;5015545;28;20461;-74
2022/07/03 05:22:59;;;;;;;6.77;3.93;;;20.90;67.90;;;;;;5015684;28;20465;-74
2022/07/03 05:25:30;;;;;;;6.23;2.90;;;21.00;67.80;;;;;;5017489;28;20544;-75
2022/07/03 05:27:58;;;;;;;4.80;2.57;;;21.10;67.70;;;;;;5015896;28;20475;-75
2022/07/03 05:30:28;;;;;;;5.47;2.77;;;21.20;67.50;;;;;;5014513;28;20667;-74
2022/07/03 05:32:56;;;;;;;5.20;2.90;;;21.30;67.40;;;;;;5017870;28;20506;-75
2022/07/03 05:35:24;;;;;;;5.30;2.87;;;21.40;67.50;;;;;;5017207;28;20491;-75
2022/07/03 05:37:52;;;;;;;5.33;2.80;;;21.50;67.70;;;;;;5014214;28;20476;-75
2022/07/03 05:40:19;;;;;;;6.73;3.10;;;21.70;68.30;;;;;;5017982;28;20459;-75
2022/07/03 05:42:47;;;;;;;6.27;2.43;;;22.00;68.70;;;;;;5017249;28;20465;-74
2022/07/03 05:45:15;;;;;;;7.60;2.87;;;22.80;67.80;;;;;;4998059;28;20485;-74
2022/07/03 05:47:44;;;;;;;4.90;2.40;;;23.80;65.80;;;;;;5014480;28;20454;-77
2022/07/03 05:50:12;;;;;;;7.43;2.90;;;25.10;63.30;;;;;;5014945;28;20463;-75
2022/07/03 05:52:40;;;;;;;6.73;2.40;;;26.20;61.60;;;;;;5014448;28;20809;-75
2022/07/03 05:55:09;;;;;;;6.47;2.73;;;27.20;60.00;;;;;;5016877;28;20471;-75
2022/07/03 05:57:37;;;;;;;5.03;2.70;;;28.20;58.60;;;;;;5014287;28;20494;-76
2022/07/03 06:00:06;;;;;;;8.13;2.37;;;29.00;57.30;;;;;;5014237;28;20474;-76
2022/07/03 06:02:34;;;;;;;6.07;2.60;;;29.60;56.20;;;;;;5016969;28;20540;-76
2022/07/03 06:05:04;;;;;;;4.83;2.40;;;30.30;55.40;;;;;;5016628;28;20979;-76
2022/07/03 06:07:32;;;;;;;4.40;2.30;;;30.90;54.50;;;;;;5010045;28;20466;-76
2022/07/03 06:09:59;;;;;;;5.37;2.17;;;31.30;53.70;;;;;;5014368;28;20497;-76
2022/07/03 06:12:27;;;;;;;6.13;2.80;;;31.60;53.00;;;;;;5017074;28;20469;-74
2022/07/03 06:14:55;;;;;;;5.30;2.53;;;31.60;52.60;;;;;;5016409;28;20479;-76
2022/07/03 06:17:29;;;;;;;6.90;3.10;;;31.20;52.70;;;;;;5012045;28;20575;-77
2022/07/03 06:19:57;;;;;;;5.67;2.30;;;30.70;53.10;;;;;;5016810;28;20816;-76
2022/07/03 06:22:26;;;;;;;3.80;1.90;;;30.10;53.40;;;;;;5014650;28;20860;-76
2022/07/03 06:24:54;;;;;;;4.50;2.00;;;29.60;53.70;;;;;;5019249;28;20472;-77
2022/07/03 06:27:22;;;;;;;5.10;2.13;;;29.10;54.10;;;;;;5015224;28;20475;-76
2022/07/03 06:29:51;;;;;;;4.87;1.90;;;28.70;54.50;;;;;;5000759;28;20573;-76
2022/07/03 06:32:19;;;;;;;8.00;1.90;;;28.30;54.80;;;;;;5017668;28;20850;-76
2022/07/03 06:34:47;;;;;;;7.00;2.10;;;27.90;55.10;;;;;;5015903;28;20459;-76
2022/07/03 06:37:15;;;;;;;4.30;2.17;;;27.40;55.50;;;;;;5016205;28;20511;-75
2022/07/03 06:39:45;;;;;;;5.60;2.20;;;27.00;55.70;;;;;;5018593;28;20470;-75
2022/07/03 06:42:13;;;;;;;4.30;1.97;;;26.50;56.30;;;;;;5020787;28;21319;-76
2022/07/03 06:44:41;;;;;;;5.00;2.57;;;26.10;56.60;;;;;;5008294;28;20510;-75
2022/07/03 06:47:09;;;;;;;4.47;2.30;;;25.70;57.20;;;;;;5014344;28;20501;-76
2022/07/03 06:49:37;;;;;;;5.70;2.03;;;25.30;57.60;;;;;;5018449;28;20841;-76
2022/07/03 06:52:05;;;;;;;4.43;2.00;;;25.00;57.90;;;;;;5022554;28;20459;-76
2022/07/03 06:54:33;;;;;;;6.47;2.20;;;24.80;58.30;;;;;;5021188;28;20977;-75
2022/07/03 06:57:03;;;;;;;5.17;2.10;;;24.50;58.80;;;;;;5006676;28;20486;-75
2022/07/03 06:59:31;;;;;;;10.07;2.27;;;24.40;59.10;;;;;;5020060;28;20455;-75
2022/07/03 07:01:59;;;;;;;6.60;2.43;;;24.30;59.50;;;;;;5021446;28;20474;-75
2022/07/03 07:04:27;;;;;;;4.00;2.10;;;24.20;59.70;;;;;;5020986;28;20471;-75
2022/07/03 07:06:55;;;;;;;4.37;2.10;;;24.10;60.00;;;;;;5003835;28;20869;-75
2022/07/03 07:09:23;;;;;;;7.17;2.37;;;24.00;60.20;;;;;;5021477;28;20482;-75
2022/07/03 07:11:51;;;;;;;8.40;2.30;;;23.90;60.50;;;;;;5018546;28;20478;-76
2022/07/03 07:14:20;;;;;;;4.20;2.10;;;23.80;60.70;;;;;;5015888;28;20469;-76
2022/07/03 07:16:48;;;;;;;4.50;2.47;;;23.80;60.90;;;;;;5017146;28;20466;-76
2022/07/03 07:19:16;;;;;;;5.50;2.13;;;23.70;61.20;;;;;;5019610;28;20907;-74
2022/07/03 07:21:45;;;;;;;4.13;2.00;;;23.70;61.40;;;;;;5018097;28;20830;-75
2022/07/03 07:24:13;;;;;;;6.33;2.23;;;23.70;61.60;;;;;;5014017;28;20472;-75
2022/07/03 07:26:41;;;;;;;4.70;2.10;;;23.70;61.70;;;;;;5016947;28;20505;-74
2022/07/03 07:29:09;;;;;;;4.10;1.90;;;23.70;61.90;;;;;;5020981;28;21028;-75
2022/07/03 07:31:38;;;;;;;4.13;2.27;;;23.70;62.10;;;;;;5010741;28;20510;-75
2022/07/03 07:34:06;;;;;;;4.97;2.00;;;23.70;62.20;;;;;;5010477;28;21066;-75
2022/07/03 07:36:34;;;;;;;4.00;1.90;;;23.70;62.40;;;;;;5011507;28;20525;-75
2022/07/03 07:39:03;;;;;;;3.93;1.87;;;23.80;62.50;;;;;;5017728;28;20449;-74
2022/07/03 07:41:30;;;;;;;4.83;2.13;;;23.80;62.60;;;;;;5021068;28;20473;-75
2022/07/03 07:43:58;;;;;;;4.00;1.83;;;23.90;62.70;;;;;;5014097;28;20461;-75
2022/07/03 07:46:26;;;;;;;4.57;2.30;;;24.00;62.60;;;;;;5017786;28;20482;-74
2022/07/03 07:48:56;;;;;;;5.07;1.80;;;24.00;62.60;;;;;;5012525;28;20521;-75
2022/07/03 07:51:24;;;;;;;4.43;1.60;;;24.10;62.60;;;;;;5013329;28;20551;-74
2022/07/03 07:53:56;;;;;;;4.60;2.10;;;24.20;62.50;;;;;;5015920;28;20480;-75
2022/07/03 07:56:25;;;;;;;4.43;1.80;;;24.20;62.60;;;;;;5021158;28;20488;-75
2022/07/03 07:58:53;;;;;;;4.20;1.90;;;24.30;62.50;;;;;;5014802;28;20468;-75
2022/07/03 08:06:53;;;;;;;4.97;2.47;;;24.30;62.50;;;;;;5017375;28;20487;-75
2022/07/03 08:09:21;;;;;;;4.50;1.97;;;24.30;62.50;;;;;;5002093;28;20518;-75
2022/07/03 08:11:49;;;;;;;4.10;1.80;;;24.40;62.40;;;;;;5018218;28;20600;-75
2022/07/03 08:14:17;;;;;;;4.10;1.80;;;24.40;62.30;;;;;;5019108;28;20498;-75
2022/07/03 08:16:46;;;;;;;4.60;2.50;;;24.50;62.30;;;;;;5015091;28;20575;-75
2022/07/03 08:19:16;;;;;;;4.63;1.90;;;24.50;62.10;;;;;;5016983;28;20876;-75
2022/07/03 08:21:43;;;;;;;4.20;1.63;;;24.50;62.00;;;;;;5021795;28;20466;-75
2022/07/03 08:24:12;;;;;;;3.57;1.40;;;24.50;61.90;;;;;;5015356;28;20466;-75
2022/07/03 08:26:40;;;;;;;9.10;2.10;;;24.60;62.00;;;;;;5020035;28;20842;-75
2022/07/03 08:29:09;;;;;;;4.83;1.50;;;24.60;62.00;;;;;;5014489;28;20458;-75
2022/07/03 08:31:37;;;;;;;4.20;1.50;;;24.70;61.80;;;;;;5015431;28;20486;-75
2022/07/03 08:34:05;;;;;;;3.90;1.60;;;24.90;61.50;;;;;;5016792;28;21318;-75
2022/07/03 08:36:34;;;;;;;4.20;1.60;;;25.00;61.20;;;;;;5016312;28;21190;-75
2022/07/03 08:39:02;;;;;;;6.33;1.70;;;25.10;61.00;;;;;;5016778;28;20466;-75
2022/07/03 08:41:32;;;;;;;4.10;1.70;;;25.20;60.90;;;;;;5015006;28;20579;-75
2022/07/03 08:44:01;;;;;;;5.13;2.10;;;25.30;60.90;;;;;;5014493;28;21063;-75
2022/07/03 08:46:32;;;;;;;4.87;2.17;;;25.40;60.90;;;;;;5014667;28;20489;-75
2022/07/03 08:49:01;;;;;;;4.00;1.53;;;25.50;60.80;;;;;;4999135;28;21102;-75
2022/07/03 08:51:30;;;;;;;4.30;2.03;;;25.60;60.50;;;;;;5013056;28;20479;-75
2022/07/03 08:54:02;;;;;;;4.50;1.97;;;25.60;60.20;;;;;;5019266;28;20509;-75
2022/07/03 08:56:30;;;;;;;4.63;1.60;;;25.70;59.90;;;;;;5015073;28;20491;-75
2022/07/03 08:58:59;;;;;;;6.60;2.43;;;25.80;59.90;;;;;;5019491;28;20466;-75
2022/07/03 09:01:27;;;;;;;4.53;1.83;;;25.80;59.80;;;;;;5015280;28;20485;-75
2022/07/03 09:03:57;;;;;;;4.00;1.60;;;25.80;59.60;;;;;;5012687;28;20468;-75
2022/07/03 09:06:25;;;;;;;8.63;2.07;;;25.80;59.50;;;;;;5014613;28;21208;-75
2022/07/03 09:08:55;;;;;;;4.10;1.63;;;25.80;59.20;;;;;;5012734;28;20453;-75
2022/07/03 09:11:25;;;;;;;4.93;1.50;;;25.80;59.20;;;;;;5009691;28;21024;-75
2022/07/03 09:13:53;;;;;;;5.60;2.00;;;25.70;59.10;;;;;;5017167;28;20555;-75
2022/07/03 09:16:22;;;;;;;4.40;1.60;;;25.70;59.00;;;;;;5012103;28;20520;-75
2022/07/03 09:18:50;;;;;;;4.10;1.60;;;25.70;58.90;;;;;;5015107;28;20469;-75
2022/07/03 09:21:18;;;;;;;4.00;1.60;;;25.70;58.90;;;;;;5017428;28;20466;-75
2022/07/03 09:23:47;;;;;;;4.73;1.30;;;25.70;58.80;;;;;;5020293;28;20464;-75
2022/07/03 09:26:16;;;;;;;6.23;1.70;;;25.60;58.80;;;;;;5015154;28;20549;-75
2022/07/03 09:28:50;;;;;;;4.17;1.57;;;25.60;58.80;;;;;;5000798;28;20511;-75
2022/07/03 09:31:20;;;;;;;5.90;1.50;;;25.60;58.70;;;;;;5016660;28;20768;-74
2022/07/03 09:33:56;;;;;;;5.60;1.37;;;25.60;58.70;;;;;;4998468;28;20469;-75
2022/07/03 09:36:39;;;;;;;3.80;1.30;;;25.70;58.50;;;;;;5016723;28;20503;-76
2022/07/03 09:39:25;;;;;;;7.30;1.20;;;25.70;58.10;;;;;;5017626;28;20458;-75
2022/07/03 09:41:55;;;;;;;6.60;1.27;;;25.90;57.40;;;;;;5020572;28;20456;-75
2022/07/03 09:44:33;;;;;;;3.83;1.33;;;26.00;57.40;;;;;;5018865;28;20457;-75
2022/07/03 09:47:12;;;;;;;3.60;1.20;;;26.10;57.20;;;;;;5014649;28;20476;-74
2022/07/03 09:49:52;;;;;;;3.93;1.20;;;26.20;56.80;;;;;;5012150;28;21083;-75
2022/07/03 09:52:35;;;;;;;4.20;0.90;;;26.20;55.80;;;;;;5017457;28;20452;-75
2022/07/03 09:55:17;;;;;;;3.30;1.00;;;26.20;55.80;;;;;;5015680;28;20478;-75
2022/07/03 09:57:58;;;;;;;3.80;1.10;;;26.30;55.80;;;;;;5016032;28;20464;-75
2022/07/03 10:00:30;;;;;;;3.97;1.40;;;26.40;55.60;;;;;;5016844;28;20463;-76
2022/07/03 10:03:02;;;;;;;3.90;1.30;;;26.40;55.40;;;;;;5015323;28;20465;-75
2022/07/03 10:05:32;;;;;;;3.73;1.10;;;26.50;55.30;;;;;;5013366;28;20489;-75
2022/07/03 10:08:01;;;;;;;3.50;1.10;;;26.50;55.10;;;;;;5013136;28;20465;-75
2022/07/03 10:10:31;;;;;;;3.57;0.93;;;26.50;54.70;;;;;;5014623;28;20489;-75
2022/07/03 10:13:00;;;;;;;3.40;0.83;;;26.60;54.30;;;;;;5015700;28;20641;-75
2022/07/03 10:15:31;;;;;;;3.90;1.10;;;26.60;53.80;;;;;;5016857;28;20985;-75
2022/07/03 10:18:00;;;;;;;7.00;1.30;;;26.70;53.50;;;;;;5016786;28;20850;-75
2022/07/03 10:20:32;;;;;;;3.70;1.03;;;26.70;53.40;;;;;;5016618;28;20454;-75
2022/07/03 10:23:00;;;;;;;3.37;0.87;;;26.80;53.30;;;;;;5014448;28;20458;-75
2022/07/03 10:25:28;;;;;;;3.63;1.03;;;26.80;53.00;;;;;;5003703;28;20497;-75
2022/07/03 10:27:57;;;;;;;3.40;0.90;;;26.80;52.70;;;;;;5018585;28;20912;-75
2022/07/03 10:30:25;;;;;;;3.30;0.80;;;26.80;52.70;;;;;;5019285;28;20494;-75
2022/07/03 10:32:56;;;;;;;3.17;0.87;;;26.80;52.60;;;;;;5018770;28;20473;-75
2022/07/03 10:35:28;;;;;;;4.30;1.10;;;26.80;52.40;;;;;;5017986;28;20496;-74
2022/07/03 10:38:13;;;;;;;5.33;1.03;;;26.80;52.00;;;;;;5017696;28;20983;-75
2022/07/03 10:46:25;;;;;;;4.37;1.10;;;26.90;52.00;;;;;;5016157;28;20494;-75
2022/07/03 10:48:58;;;;;;;4.57;0.90;;;26.90;51.70;;;;;;5016924;28;20470;-75
2022/07/03 10:51:29;;;;;;;6.83;1.10;;;26.90;51.50;;;;;;5015546;28;20470;-75
2022/07/03 10:54:14;;;;;;;5.10;0.97;;;26.90;51.50;;;;;;5001975;28;20464;-75
2022/07/03 10:57:17;;;;;;;3.57;1.23;;;27.00;51.70;;;;;;5012374;28;20488;-75
2022/07/03 11:00:16;;;;;;;4.10;1.20;;;27.00;51.50;;;;;;4962966;28;20554;-76
2022/07/03 11:02:47;;;;;;;3.67;1.20;;;27.10;51.60;;;;;;4961932;28;20992;-76
2022/07/03 11:05:27;;;;;;;3.90;1.17;;;27.10;51.70;;;;;;5003401;28;20539;-75
2022/07/03 11:08:12;;;;;;;3.53;1.20;;;27.10;51.70;;;;;;5017536;28;20464;-75
2022/07/03 11:10:44;;;;;;;3.80;1.10;;;27.10;51.60;;;;;;5002019;28;20851;-74
2022/07/03 11:13:20;;;;;;;3.70;1.00;;;27.20;51.60;;;;;;5014116;28;20456;-75
2022/07/03 11:15:52;;;;;;;3.70;0.93;;;27.30;51.10;;;;;;4999825;28;20475;-75
2022/07/03 11:18:33;;;;;;;3.53;0.80;;;27.30;51.00;;;;;;5020230;28;20448;-75
2022/07/03 11:21:28;;;;;;;5.40;1.23;;;27.30;51.10;;;;;;5014682;28;20502;-75
2022/07/03 11:24:37;;;;;;;4.23;1.17;;;27.40;50.80;;;;;;5017418;28;21232;-74
2022/07/03 11:27:19;;;;;;;4.03;1.07;;;27.40;51.00;;;;;;4897811;29;20501;-74
2022/07/03 11:29:52;;;;;;;7.53;1.00;;;27.50;50.80;;;;;;4916787;29;21233;-75
2022/07/03 11:32:47;;;;;;;4.33;1.10;;;27.50;50.90;;;;;;4980147;28;20495;-76
2022/07/03 11:35:44;;;;;;;5.83;0.90;;;27.50;50.70;;;;;;5000129;28;20493;-76
2022/07/03 11:38:15;;;;;;;3.60;1.07;;;27.50;50.70;;;;;;5017596;28;20488;-76
2022/07/03 11:40:44;;;;;;;3.70;1.10;;;27.50;50.90;;;;;;5014756;28;20467;-76
2022/07/03 11:43:13;;;;;;;3.20;0.93;;;27.50;51.00;;;;;;5013797;28;20473;-75
2022/07/03 11:45:42;;;;;;;3.77;0.83;;;27.60;51.20;;;;;;5016007;28;20490;-75
2022/07/03 11:48:13;;;;;;;3.70;1.40;;;27.60;51.10;;;;;;5015356;28;20830;-76
2022/07/03 11:50:44;;;;;;;4.63;1.47;;;27.70;51.20;;;;;;5018701;28;20524;-76
2022/07/03 11:53:21;;;;;;;5.10;1.20;;;27.70;51.30;;;;;;5017401;28;20500;-77
2022/07/03 11:55:57;;;;;;;3.57;1.10;;;27.70;51.20;;;;;;5015698;28;20540;-76
2022/07/03 11:59:11;;;;;;;7.10;1.10;;;27.70;51.20;;;;;;5017276;28;20726;-76
2022/07/03 12:01:40;;;;;;;3.40;1.10;;;27.80;51.30;;;;;;5017757;28;20492;-76
2022/07/03 12:04:09;;;;;;;5.40;1.40;;;27.80;51.30;;;;;;5014696;28;20473;-77
2022/07/03 12:06:39;;;;;;;5.03;1.13;;;27.80;51.30;;;;;;4995088;28;21147;-78
2022/07/03 12:09:17;;;;;;;3.93;1.27;;;27.80;50.90;;;;;;5016712;28;20467;-78
2022/07/03 12:11:59;;;;;;;4.97;1.03;;;27.80;51.30;;;;;;5012831;28;20487;-78
2022/07/03 12:14:42;;;;;;;3.80;1.17;;;27.90;51.30;;;;;;5012972;28;21039;-77
2022/07/03 12:17:13;;;;;;;5.07;1.43;;;27.90;51.30;;;;;;4998693;28;20471;-78
2022/07/03 12:19:49;;;;;;;4.47;1.10;;;28.00;51.10;;;;;;5000991;28;20574;-78
2022/07/03 12:22:25;;;;;;;5.20;1.20;;;28.00;51.00;;;;;;5015582;28;20468;-78
2022/07/03 12:25:00;;;;;;;3.87;1.00;;;28.00;51.00;;;;;;5012803;28;20562;-78
2022/07/03 12:27:28;;;;;;;5.40;1.50;;;28.00;51.20;;;;;;4997634;28;20466;-77
2022/07/03 12:29:57;;;;;;;5.00;1.30;;;28.10;51.10;;;;;;5019433;28;20459;-78
2022/07/03 12:32:25;;;;;;;3.93;1.20;;;28.10;51.10;;;;;;5015484;28;20497;-77
2022/07/03 12:34:53;;;;;;;4.80;1.73;;;28.10;51.00;;;;;;5004490;28;20509;-78
2022/07/03 12:37:33;;;;;;;3.30;1.00;;;28.10;50.90;;;;;;5016132;28;20458;-77
2022/07/03 12:40:04;;;;;;;3.37;0.83;;;28.20;50.70;;;;;;5017441;28;21265;-78
2022/07/03 12:42:42;;;;;;;3.87;1.10;;;28.10;50.60;;;;;;5014509;28;20451;-78
2022/07/03 12:45:13;;;;;;;5.67;1.30;;;28.10;50.40;;;;;;5013371;28;20466;-78
2022/07/03 12:47:44;;;;;;;4.03;1.10;;;28.10;50.50;;;;;;5011622;28;20464;-78
2022/07/03 12:50:14;;;;;;;5.27;1.10;;;28.10;50.50;;;;;;5015890;28;20460;-78
2022/07/03 12:52:53;;;;;;;7.50;1.07;;;28.10;50.40;;;;;;5015917;28;20489;-78
2022/07/03 12:59:36;;;;;;;3.97;1.30;;;28.20;50.40;;;;;;5019722;28;20519;-77
2022/07/03 13:02:05;;;;;;;4.03;1.10;;;28.20;50.40;;;;;;5018701;28;20487;-77
2022/07/03 13:04:36;;;;;;;4.50;1.37;;;28.30;50.10;;;;;;5014885;28;20544;-77
2022/07/03 13:07:06;;;;;;;4.13;1.30;;;28.40;50.10;;;;;;5017729;28;20494;-77
2022/07/03 13:09:35;;;;;;;4.80;1.10;;;28.40;50.10;;;;;;5013895;28;20484;-76
2022/07/03 13:12:04;;;;;;;5.27;1.30;;;28.40;50.30;;;;;;5011789;28;20848;-77
2022/07/03 13:14:59;;;;;;;3.50;1.00;;;28.40;50.10;;;;;;5014798;28;20484;-76
2022/07/03 13:17:52;;;;;;;3.40;1.10;;;28.40;50.00;;;;;;5015619;28;20843;-77
2022/07/03 13:20:20;;;;;;;3.70;1.40;;;28.50;50.10;;;;;;5014547;28;20574;-77
2022/07/03 13:22:48;;;;;;;6.23;1.67;;;28.50;50.10;;;;;;5011758;28;20463;-76
2022/07/03 13:25:17;;;;;;;3.90;1.30;;;28.50;50.10;;;;;;5014640;28;20481;-77